createdAt,value
2018-06-14T00:01:46.074Z,12.00
2018-06-14T00:04:20.062Z,12.00
2018-06-14T00:06:53.012Z,12.00
2018-06-14T00:09:23.562Z,11.00
2018-06-14T00:11:55.961Z,12.00
2018-06-14T00:14:26.569Z,11.33
2018-06-14T00:16:58.948Z,10.33
2018-06-14T00:19:31.303Z,11.33
2018-06-14T00:22:02.704Z,9.67
2018-06-14T00:24:34.112Z,11.00
2018-06-14T00:27:05.605Z,9.00
2018-06-14T00:29:37.055Z,11.00
2018-06-14T00:32:09.378Z,11.00
2018-06-14T00:34:41.400Z,10.33
2018-06-14T00:37:12.814Z,9.00
2018-06-14T00:39:44.256Z,9.33
2018-06-14T00:42:16.476Z,10.33
2018-06-14T00:44:47.045Z,11.67
2018-06-14T00:47:18.409Z,11.00
2018-06-14T00:49:51.642Z,9.67
2018-06-14T00:52:22.777Z,9.67
2018-06-14T00:54:55.217Z,11.00
2018-06-14T00:57:29.430Z,9.00
2018-06-14T01:00:04.300Z,11.67
2018-06-14T01:02:35.441Z,8.00
2018-06-14T01:05:08.117Z,11.00
2018-06-14T01:07:39.569Z,9.67
2018-06-14T01:10:10.828Z,10.33
2018-06-14T01:12:43.440Z,11.33
2018-06-14T01:15:17.692Z,9.00
2018-06-14T01:17:53.746Z,12.00
2018-06-14T01:20:26.171Z,9.00
2018-06-14T01:22:57.799Z,12.00
2018-06-14T01:25:41.151Z,10.33
2018-06-14T01:28:14.249Z,11.67
2018-06-14T01:30:46.645Z,11.33
2018-06-14T01:33:18.264Z,9.00
2018-06-14T01:35:54.089Z,11.67
2018-06-14T01:38:26.754Z,8.00
2018-06-14T01:40:58.210Z,8.67
2018-06-14T01:43:30.508Z,11.67
2018-06-14T01:46:01.053Z,9.67
2018-06-14T01:48:32.633Z,11.00
2018-06-14T01:51:04.067Z,9.00
2018-06-14T01:53:36.360Z,8.67
2018-06-14T01:56:08.742Z,9.00
2018-06-14T01:58:40.001Z,9.00
2018-06-14T02:01:11.444Z,9.33
2018-06-14T02:03:43.798Z,9.00
2018-06-14T02:06:17.158Z,10.33
2018-06-14T02:08:48.677Z,8.00
2018-06-14T02:11:21.397Z,8.67
2018-06-14T02:13:52.810Z,8.67
2018-06-14T02:16:24.037Z,7.67
2018-06-14T02:18:57.439Z,9.00
2018-06-14T02:21:30.216Z,8.00
2018-06-14T02:24:02.097Z,9.33
2018-06-14T02:26:34.218Z,8.33
2018-06-14T02:29:07.610Z,9.33
2018-06-14T02:31:39.864Z,7.33
2018-06-14T02:34:11.317Z,9.00
2018-06-14T02:36:43.865Z,8.00
2018-06-14T02:39:15.337Z,9.33
2018-06-14T02:41:48.294Z,8.67
2018-06-14T02:44:18.910Z,8.00
2018-06-14T02:46:51.570Z,9.33
2018-06-14T02:49:22.987Z,10.67
2018-06-14T02:51:55.256Z,9.33
2018-06-14T02:54:27.488Z,9.00
2018-06-14T02:56:59.321Z,8.00
2018-06-14T02:59:32.503Z,10.00
2018-06-14T03:02:04.818Z,8.00
2018-06-14T03:04:36.292Z,8.00
2018-06-14T03:07:08.664Z,7.60
2018-06-14T03:09:41.950Z,8.00
2018-06-14T03:12:13.337Z,8.00
2018-06-14T03:14:44.576Z,9.33
2018-06-14T03:17:16.013Z,8.00
2018-06-14T03:19:47.557Z,10.00
2018-06-14T03:22:20.598Z,10.00
2018-06-14T03:24:52.041Z,10.00
2018-06-14T03:27:23.445Z,10.00
2018-06-14T03:29:54.893Z,8.00
2018-06-14T03:32:27.157Z,7.00
2018-06-14T03:34:58.567Z,8.00
2018-06-14T03:37:30.001Z,8.33
2018-06-14T03:40:02.612Z,7.00
2018-06-14T03:42:38.944Z,8.00
2018-06-14T03:45:17.941Z,7.00
2018-06-14T03:47:51.385Z,7.00
2018-06-14T03:50:23.017Z,7.67
2018-06-14T03:52:54.974Z,7.00
2018-06-14T03:55:28.314Z,7.50
2018-06-14T03:57:59.876Z,5.33
2018-06-14T04:00:33.007Z,5.75
2018-06-14T04:03:05.396Z,7.00
2018-06-14T04:05:37.045Z,7.00
2018-06-14T04:08:09.054Z,7.00
2018-06-14T04:10:41.385Z,7.00
2018-06-14T04:15:48.832Z,6.00
2018-06-14T04:18:21.197Z,6.80
2018-06-14T04:20:53.431Z,6.20
2018-06-14T04:23:26.045Z,6.80
2018-06-14T04:25:58.296Z,7.00
2018-06-14T04:28:29.643Z,6.33
2018-06-14T04:31:01.827Z,6.75
2018-06-14T04:33:33.894Z,6.67
2018-06-14T04:36:05.750Z,6.00
2018-06-14T04:41:20.348Z,7.00
2018-06-14T04:43:51.587Z,5.33
2018-06-14T04:46:23.715Z,7.00
2018-06-14T04:48:56.147Z,7.00
2018-06-14T04:51:27.509Z,7.00
2018-06-14T04:54:00.782Z,9.00
2018-06-14T04:56:32.854Z,7.00
2018-06-14T04:59:05.658Z,6.20
2018-06-14T05:01:39.447Z,7.25
2018-06-14T05:04:11.739Z,7.75
2018-06-14T05:06:43.429Z,7.00
2018-06-14T05:09:14.897Z,7.00
2018-06-14T05:11:46.229Z,8.00
2018-06-14T05:14:19.767Z,8.60
2018-06-14T05:16:50.891Z,6.67
2018-06-14T05:19:22.403Z,8.00
2018-06-14T05:21:53.753Z,6.00
2018-06-14T05:24:25.005Z,8.00
2018-06-14T05:26:56.919Z,6.67
2018-06-14T05:29:29.288Z,6.67
2018-06-14T05:32:01.945Z,7.33
2018-06-14T05:34:37.273Z,8.00
2018-06-14T05:37:09.931Z,7.40
2018-06-14T05:39:42.444Z,7.00
2018-06-14T05:42:14.742Z,7.00
2018-06-14T05:44:46.340Z,7.00
2018-06-14T05:47:19.006Z,8.33
2018-06-14T05:49:50.438Z,9.00
2018-06-14T05:52:27.168Z,7.00
2018-06-14T05:55:01.031Z,7.75
2018-06-14T05:57:33.414Z,8.33
2018-06-14T06:00:06.430Z,8.33
2018-06-14T06:02:39.006Z,11.00
2018-06-14T06:05:11.370Z,10.25
2018-06-14T06:07:44.089Z,8.00
2018-06-14T06:10:15.294Z,8.67
2018-06-14T06:12:47.193Z,7.00
2018-06-14T06:15:19.527Z,9.33
2018-06-14T06:17:50.873Z,8.00
2018-06-14T06:20:22.414Z,9.33
2018-06-14T06:22:55.490Z,8.00
2018-06-14T06:25:27.215Z,12.00
2018-06-14T06:27:59.410Z,8.25
2018-06-14T06:30:32.662Z,8.00
2018-06-14T06:33:04.127Z,9.00
2018-06-14T06:35:40.679Z,9.25
2018-06-14T06:38:12.775Z,8.00
2018-06-14T06:40:44.705Z,9.33
2018-06-14T06:43:18.411Z,9.33
2018-06-14T06:45:49.852Z,9.00
2018-06-14T06:48:21.812Z,9.33
2018-06-14T06:50:53.284Z,8.00
2018-06-14T06:53:25.702Z,9.67
2018-06-14T06:55:57.344Z,10.33
2018-06-14T06:58:28.796Z,10.33
2018-06-14T07:01:00.126Z,9.67
2018-06-14T07:03:32.010Z,12.00
2018-06-14T07:06:03.502Z,8.33
2018-06-14T07:08:36.648Z,9.67
2018-06-14T07:11:08.808Z,11.33
2018-06-14T07:13:42.773Z,9.17
2018-06-14T07:16:15.369Z,9.33
2018-06-14T07:18:46.551Z,9.00
2018-06-14T07:21:18.830Z,10.33
2018-06-14T07:23:50.919Z,13.00
2018-06-14T07:26:22.949Z,12.33
2018-06-14T07:28:55.280Z,13.00
2018-06-14T07:31:35.810Z,10.00
2018-06-14T07:34:07.577Z,13.67
2018-06-14T07:36:39.005Z,14.67
2018-06-14T07:39:14.219Z,12.67
2018-06-14T07:41:50.432Z,10.67
2018-06-14T07:44:25.747Z,13.67
2018-06-14T07:46:56.304Z,12.00
2018-06-14T07:49:29.421Z,12.00
2018-06-14T07:52:01.893Z,11.67
2018-06-14T07:54:33.844Z,13.00
2018-06-14T07:57:04.454Z,12.33
2018-06-14T07:59:36.784Z,11.00
2018-06-14T08:02:08.359Z,12.67
2018-06-14T08:04:39.945Z,13.67
2018-06-14T08:07:12.242Z,14.67
2018-06-14T08:09:44.615Z,13.33
2018-06-14T08:12:17.963Z,13.00
2018-06-14T08:14:50.998Z,13.67
2018-06-14T08:17:21.513Z,12.00
2018-06-14T08:19:53.874Z,14.33
2018-06-14T08:22:25.251Z,13.33
2018-06-14T08:24:59.209Z,13.00
2018-06-14T08:27:30.591Z,13.67
2018-06-14T08:30:06.223Z,13.00
2018-06-14T08:32:37.343Z,13.00
2018-06-14T08:35:08.963Z,13.00
2018-06-14T08:37:39.531Z,13.00
2018-06-14T08:40:11.385Z,13.67
2018-06-14T08:42:42.166Z,12.67
2018-06-14T08:45:15.202Z,10.67
2018-06-14T08:47:45.830Z,13.00
2018-06-14T08:50:16.611Z,12.67
2018-06-14T08:52:48.372Z,11.00
2018-06-14T08:55:20.183Z,12.00
2018-06-14T08:57:52.295Z,12.00
2018-06-14T09:00:23.784Z,12.00
2018-06-14T09:02:56.711Z,12.33
2018-06-14T09:05:27.231Z,12.00
2018-06-14T09:07:59.362Z,13.33
2018-06-14T09:10:33.023Z,14.33
2018-06-14T09:13:04.358Z,13.33
2018-06-14T09:15:40.247Z,14.67
2018-06-14T09:18:10.865Z,13.00
2018-06-14T09:20:43.468Z,12.33
2018-06-14T09:23:17.881Z,14.67
2018-06-14T09:25:51.879Z,15.00
2018-06-14T09:28:22.700Z,14.00
2018-06-14T09:30:54.982Z,16.00
2018-06-14T09:33:25.655Z,13.67
2018-06-14T09:35:58.842Z,15.33
2018-06-14T09:38:30.387Z,15.00
2018-06-14T09:41:02.558Z,15.00
2018-06-14T09:43:34.749Z,13.33
2018-06-14T09:46:05.281Z,14.00
2018-06-14T09:48:35.806Z,15.67
2018-06-14T09:51:06.760Z,11.33
2018-06-14T09:53:38.993Z,14.33
2018-06-14T09:56:10.670Z,15.00
2018-06-14T09:58:41.469Z,14.67
2018-06-14T10:01:11.971Z,13.00
2018-06-14T10:03:42.597Z,13.00
2018-06-14T10:06:16.608Z,15.67
2018-06-14T10:08:50.884Z,14.67
2018-06-14T10:11:22.862Z,14.00
2018-06-14T10:13:54.355Z,16.33
2018-06-14T10:16:25.020Z,14.33
2018-06-14T10:18:57.339Z,13.00
2018-06-14T10:21:39.801Z,15.00
2018-06-14T10:24:12.924Z,16.33
2018-06-14T10:26:45.938Z,16.33
2018-06-14T10:32:07.228Z,14.00
2018-06-14T10:34:38.409Z,15.00
2018-06-14T10:37:09.617Z,14.67
2018-06-14T10:39:41.486Z,16.67
2018-06-14T10:42:16.355Z,12.33
2018-06-14T10:44:52.125Z,12.00
2018-06-14T10:47:23.675Z,14.00
2018-06-14T10:49:54.463Z,13.00
2018-06-14T10:52:25.576Z,15.67
2018-06-14T10:54:55.977Z,15.67
2018-06-14T10:57:26.606Z,14.00
2018-06-14T10:59:57.776Z,16.67
2018-06-14T11:05:09.398Z,16.00
2018-06-14T11:07:44.757Z,15.33
2018-06-14T11:10:15.772Z,14.33
2018-06-14T11:12:52.190Z,15.00
2018-06-14T11:15:27.671Z,15.00
2018-06-14T11:18:01.226Z,13.67
2018-06-14T11:20:33.077Z,16.67
2018-06-14T11:23:07.343Z,16.67
2018-06-14T11:25:41.588Z,13.00
2018-06-14T11:28:16.543Z,13.67
2018-06-14T11:30:50.598Z,14.67
2018-06-14T11:33:24.347Z,13.67
2018-06-14T11:35:56.728Z,13.67
2018-06-14T11:38:29.729Z,14.33
2018-06-14T11:41:04.700Z,14.33
2018-06-14T11:43:35.835Z,14.67
2018-06-14T11:46:07.351Z,14.33
2018-06-14T11:48:39.774Z,13.67
2018-06-14T11:51:10.486Z,13.67
2018-06-14T11:53:41.695Z,14.33
2018-06-14T11:56:12.483Z,14.33
2018-06-14T11:58:43.696Z,14.00
2018-06-14T12:01:16.696Z,15.00
2018-06-14T12:03:50.535Z,13.67
2018-06-14T12:06:23.471Z,15.00
2018-06-14T12:08:53.989Z,12.67
2018-06-14T12:11:27.693Z,13.00
2018-06-14T12:14:11.307Z,12.33
2018-06-14T12:16:42.529Z,13.00
2018-06-14T12:19:13.048Z,12.33
2018-06-14T12:21:44.764Z,14.00
2018-06-14T12:24:16.400Z,13.33
2018-06-14T12:26:46.998Z,14.33
2018-06-14T12:29:17.747Z,14.00
2018-06-14T12:31:49.681Z,15.00
2018-06-14T12:34:20.183Z,13.67
2018-06-14T12:36:52.363Z,12.00
2018-06-14T12:39:27.492Z,11.67
2018-06-14T12:41:58.922Z,11.33
2018-06-14T12:44:30.139Z,15.33
2018-06-14T12:47:02.649Z,14.33
2018-06-14T12:49:33.073Z,12.00
2018-06-14T12:52:07.136Z,12.67
2018-06-14T12:54:38.422Z,13.67
2018-06-14T12:57:26.195Z,13.33
2018-06-14T12:59:57.565Z,13.00
2018-06-14T13:02:30.571Z,14.00
2018-06-14T13:05:04.303Z,13.00
2018-06-14T13:07:38.685Z,12.67
2018-06-14T13:10:11.911Z,12.67
2018-06-14T13:12:43.048Z,14.67
2018-06-14T13:15:17.264Z,17.00
2018-06-14T13:17:52.470Z,12.00
2018-06-14T13:20:23.734Z,15.00
2018-06-14T13:22:55.544Z,14.33
2018-06-14T13:25:26.615Z,14.00
2018-06-14T13:27:59.445Z,15.33
2018-06-14T13:30:29.978Z,12.67
2018-06-14T13:33:02.383Z,10.33
2018-06-14T13:35:34.752Z,13.00
2018-06-14T13:38:06.483Z,13.33
2018-06-14T13:40:41.887Z,15.00
2018-06-14T13:43:13.497Z,13.33
2018-06-14T13:45:45.467Z,14.00
2018-06-14T13:48:17.479Z,12.00
2018-06-14T13:50:49.944Z,11.67
2018-06-14T13:53:22.255Z,11.67
2018-06-14T13:55:54.176Z,11.00
2018-06-14T13:58:24.606Z,9.00
2018-06-14T14:00:58.187Z,12.33
2018-06-14T14:03:29.752Z,13.00
2018-06-14T14:06:00.830Z,11.00
2018-06-14T14:08:37.848Z,12.33
2018-06-14T14:11:08.404Z,12.67
2018-06-14T14:13:42.580Z,9.67
2018-06-14T14:16:20.330Z,13.00
2018-06-14T14:18:53.366Z,12.67
2018-06-14T14:21:24.051Z,11.67
2018-06-14T14:23:57.501Z,11.33
2018-06-14T14:26:32.029Z,12.67
2018-06-14T14:29:02.631Z,11.00
2018-06-14T14:31:34.207Z,12.00
2018-06-14T14:34:08.423Z,11.00
2018-06-14T14:36:42.641Z,11.67
2018-06-14T14:39:16.084Z,12.67
2018-06-14T14:41:52.391Z,9.33
2018-06-14T14:44:24.647Z,11.33
2018-06-14T14:46:57.071Z,11.33
2018-06-14T14:49:33.962Z,10.00
2018-06-14T14:52:09.932Z,13.00
2018-06-14T15:00:17.775Z,13.00
2018-06-14T15:02:58.216Z,11.33
2018-06-14T15:08:15.247Z,13.00
2018-06-14T15:10:56.576Z,10.67
2018-06-14T15:13:31.105Z,11.67
2018-06-14T15:16:06.651Z,11.00
2018-06-14T15:18:40.556Z,11.67
2018-06-14T15:21:18.331Z,9.00
2018-06-14T15:23:56.811Z,12.00
2018-06-14T15:26:38.253Z,12.67
2018-06-14T15:29:18.928Z,12.00
2018-06-14T15:31:52.665Z,11.33
2018-06-14T15:34:37.623Z,13.33
2018-06-14T15:37:16.555Z,11.33
2018-06-14T15:39:52.268Z,13.67
2018-06-14T15:42:30.378Z,12.00
2018-06-14T15:47:31.458Z,12.17
2018-06-14T15:50:06.901Z,11.67
2018-06-14T15:52:39.427Z,9.67
2018-06-14T15:55:22.416Z,12.00
2018-06-14T15:57:53.488Z,11.67
2018-06-14T16:00:28.423Z,10.33
2018-06-14T16:03:03.271Z,11.33
2018-06-14T16:05:33.850Z,12.33
2018-06-14T16:08:06.601Z,11.33
2018-06-14T16:10:39.454Z,12.00
2018-06-14T16:13:14.559Z,12.67
2018-06-14T16:15:51.146Z,10.33
2018-06-14T16:18:27.532Z,11.67
2018-06-14T16:20:59.367Z,10.67
2018-06-14T16:23:29.857Z,10.00
2018-06-14T16:26:03.159Z,10.67
2018-06-14T16:28:38.499Z,11.00
2018-06-14T16:31:13.538Z,10.00
2018-06-14T16:33:47.231Z,11.67
2018-06-14T16:36:19.131Z,11.67
2018-06-14T16:38:56.271Z,11.00
2018-06-14T16:41:34.172Z,10.00
2018-06-14T16:44:06.405Z,11.67
2018-06-14T16:46:39.888Z,11.00
2018-06-14T16:49:12.327Z,10.67
2018-06-14T16:51:44.197Z,10.67
2018-06-14T16:54:18.570Z,10.67
2018-06-14T16:56:49.224Z,10.33
2018-06-14T16:59:20.691Z,12.33
2018-06-14T17:01:51.464Z,10.00
2018-06-14T17:04:25.407Z,11.67
2018-06-14T17:06:58.283Z,9.33
2018-06-14T17:09:43.243Z,11.00
2018-06-14T17:12:13.724Z,11.67
2018-06-14T17:14:46.355Z,12.00
2018-06-14T17:17:18.761Z,11.00
2018-06-14T17:19:50.446Z,13.00
2018-06-14T17:22:23.282Z,12.33
2018-06-14T17:24:59.220Z,11.00
2018-06-14T17:27:29.860Z,12.67
2018-06-14T17:30:07.613Z,12.67
2018-06-14T17:32:43.267Z,12.67
2018-06-14T17:35:15.823Z,12.00
2018-06-14T17:37:49.822Z,9.67
2018-06-14T17:40:24.587Z,11.33
2018-06-14T17:42:58.946Z,11.00
2018-06-14T17:45:30.344Z,16.00
2018-06-14T17:48:05.306Z,13.67
2018-06-14T17:50:36.023Z,12.67
2018-06-14T17:53:09.407Z,12.00
2018-06-14T17:55:44.228Z,10.00
2018-06-14T17:58:22.453Z,12.00
2018-06-14T18:00:54.972Z,13.00
2018-06-14T18:03:30.120Z,11.67
2018-06-14T18:06:08.730Z,12.67
2018-06-14T18:08:44.431Z,12.00
2018-06-14T18:11:23.570Z,10.67
